createdAt,value
2023-04-01T00:01:06.802Z,9.00
2023-04-01T00:03:34.374Z,9.00
2023-04-01T00:06:01.913Z,9.00
2023-04-01T00:08:29.132Z,9.00
2023-04-01T00:10:56.518Z,9.00
2023-04-01T00:13:23.268Z,9.00
2023-04-01T00:15:50.626Z,9.00
2023-04-01T00:18:17.343Z,9.00
2023-04-01T00:20:51.419Z,9.00
2023-04-01T00:23:19.119Z,9.00
2023-04-01T00:25:48.677Z,9.00
2023-04-01T00:28:17.564Z,9.00
2023-04-01T00:30:44.295Z,9.00
2023-04-01T00:33:11.575Z,9.00
2023-04-01T00:35:38.590Z,8.90
2023-04-01T00:38:05.836Z,8.90
2023-04-01T00:40:37.103Z,8.90
2023-04-01T00:43:10.310Z,8.90
2023-04-01T00:45:40.335Z,8.90
2023-04-01T00:48:11.195Z,8.90
2023-04-01T00:50:40.528Z,8.90
2023-04-01T00:53:09.210Z,8.90
2023-04-01T00:55:40.172Z,8.80
2023-04-01T00:58:12.169Z,8.80
2023-04-01T01:00:39.458Z,8.80
2023-04-01T01:03:06.217Z,8.80
2023-04-01T01:05:58.287Z,8.80
2023-04-01T01:08:39.961Z,8.80
2023-04-01T01:11:12.616Z,8.80
2023-04-01T01:13:58.987Z,8.80
2023-04-01T01:16:27.882Z,8.80
2023-04-01T01:19:18.172Z,8.80
2023-04-01T01:22:04.744Z,8.80
2023-04-01T01:24:43.503Z,8.80
2023-04-01T01:27:12.738Z,8.80
2023-04-01T01:30:09.502Z,8.80
2023-04-01T01:33:07.048Z,8.80
2023-04-01T01:35:41.245Z,8.80
2023-04-01T01:38:14.385Z,8.80
2023-04-01T01:40:45.906Z,8.80
2023-04-01T01:43:16.958Z,8.80
2023-04-01T01:45:50.696Z,8.80
2023-04-01T01:48:18.298Z,8.80
2023-04-01T01:50:46.870Z,8.80
2023-04-01T01:53:15.210Z,8.80
2023-04-01T01:55:47.681Z,8.70
2023-04-01T01:58:35.747Z,8.80
2023-04-01T02:01:06.671Z,8.70
2023-04-01T02:03:37.838Z,8.80
2023-04-01T02:06:12.033Z,8.80
2023-04-01T02:08:41.828Z,8.80
2023-04-01T02:11:12.924Z,8.80
2023-04-01T02:13:58.037Z,8.70
2023-04-01T02:16:27.773Z,8.80
2023-04-01T02:18:57.052Z,8.80
2023-04-01T02:21:26.401Z,8.80
2023-04-01T02:23:55.951Z,8.70
2023-04-01T02:26:24.221Z,8.70
2023-04-01T02:28:53.540Z,8.70
2023-04-01T02:31:20.798Z,8.70
2023-04-01T02:33:48.415Z,8.80
2023-04-01T02:36:16.837Z,8.70
2023-04-01T02:38:45.584Z,8.70
2023-04-01T02:41:13.322Z,8.70
2023-04-01T02:43:40.140Z,8.70
2023-04-01T02:46:06.873Z,8.80
2023-04-01T02:48:33.514Z,8.80
2023-04-01T02:51:00.288Z,8.70
2023-04-01T02:53:26.988Z,8.70
2023-04-01T02:55:53.701Z,8.70
2023-04-01T02:58:20.387Z,8.70
2023-04-01T03:00:47.226Z,8.70
2023-04-01T03:03:14.604Z,8.70
2023-04-01T03:05:41.407Z,8.70
2023-04-01T03:08:08.102Z,8.70
2023-04-01T03:10:34.715Z,8.70
2023-04-01T03:13:01.421Z,8.70
2023-04-01T03:15:28.042Z,8.70
2023-04-01T03:17:54.754Z,8.70
2023-04-01T03:20:21.559Z,8.70
2023-04-01T03:22:48.266Z,8.70
2023-04-01T03:25:14.935Z,8.70
2023-04-01T03:27:41.682Z,8.70
2023-04-01T03:30:09.238Z,8.70
2023-04-01T03:32:35.987Z,8.70
2023-04-01T03:35:02.728Z,8.70
2023-04-01T03:37:29.390Z,8.70
2023-04-01T03:39:56.248Z,8.70
2023-04-01T03:42:22.846Z,8.70
2023-04-01T03:44:49.458Z,8.70
2023-04-01T03:47:16.167Z,8.70
2023-04-01T03:49:42.782Z,8.70
2023-04-01T03:52:11.785Z,8.60
2023-04-01T03:54:38.674Z,8.70
2023-04-01T03:57:05.585Z,8.70
2023-04-01T03:59:32.377Z,8.70
2023-04-01T04:01:59.165Z,8.70
2023-04-01T04:04:26.941Z,8.70
2023-04-01T04:06:53.687Z,8.70
2023-04-01T04:09:20.338Z,8.70
2023-04-01T04:11:47.022Z,8.60
2023-04-01T04:14:13.714Z,8.60
2023-04-01T04:16:40.542Z,8.70
2023-04-01T04:19:07.326Z,8.70
2023-04-01T04:21:34.025Z,8.70
2023-04-01T04:24:01.367Z,8.60
2023-04-01T04:26:28.409Z,8.70
2023-04-01T04:28:56.056Z,8.60
2023-04-01T04:31:24.668Z,8.60
2023-04-01T04:33:52.378Z,8.60
2023-04-01T04:36:20.532Z,8.60
2023-04-01T04:38:47.468Z,8.60
2023-04-01T04:41:15.951Z,8.60
2023-04-01T04:43:43.246Z,8.60
2023-04-01T04:46:11.438Z,8.50
2023-04-01T04:48:38.312Z,8.50
2023-04-01T04:51:04.990Z,8.60
2023-04-01T04:53:31.639Z,8.50
2023-04-01T04:55:58.340Z,8.50
2023-04-01T04:58:25.033Z,8.50
2023-04-01T05:00:51.642Z,8.50
2023-04-01T05:03:18.417Z,8.50
2023-04-01T05:05:53.962Z,8.50
2023-04-01T05:08:21.060Z,8.40
2023-04-01T05:10:47.768Z,8.40
2023-04-01T05:13:14.390Z,8.50
2023-04-01T05:15:41.341Z,8.40
2023-04-01T05:18:08.198Z,8.40
2023-04-01T05:20:34.877Z,8.40
2023-04-01T05:23:01.896Z,8.40
2023-04-01T05:25:28.843Z,8.40
2023-04-01T05:27:55.845Z,8.40
2023-04-01T05:30:22.541Z,8.40
2023-04-01T05:32:49.288Z,8.50
2023-04-01T05:35:16.065Z,8.50
2023-04-01T05:37:42.751Z,8.40
2023-04-01T05:40:10.186Z,8.40
2023-04-01T05:42:38.307Z,8.40
2023-04-01T05:45:06.091Z,8.50
2023-04-01T05:47:32.916Z,8.40
2023-04-01T05:50:00.021Z,8.40
2023-04-01T05:52:26.692Z,8.40
2023-04-01T05:54:53.423Z,8.40
2023-04-01T05:57:20.374Z,8.40
2023-04-01T05:59:47.031Z,8.40
2023-04-01T06:02:14.240Z,8.40
2023-04-01T06:04:41.920Z,8.30
2023-04-01T06:07:17.068Z,8.30
2023-04-01T06:09:45.563Z,8.30
2023-04-01T06:12:30.050Z,8.30
2023-04-01T06:15:26.942Z,8.30
2023-04-01T06:18:30.845Z,8.40
2023-04-01T06:21:08.832Z,8.40
2023-04-01T06:23:38.540Z,8.40
2023-04-01T06:26:25.414Z,8.40
2023-04-01T06:29:24.875Z,8.40
2023-04-01T06:32:13.571Z,8.40
2023-04-01T06:35:16.928Z,8.40
2023-04-01T06:38:12.373Z,8.40
2023-04-01T06:40:44.855Z,8.40
2023-04-01T06:43:23.953Z,8.40
2023-04-01T06:46:20.459Z,8.50
2023-04-01T06:48:54.878Z,8.50
2023-04-01T06:51:40.192Z,8.40
2023-04-01T06:54:18.741Z,8.50
2023-04-01T06:56:48.125Z,8.50
2023-04-01T06:59:26.169Z,8.50
2023-04-01T07:02:11.150Z,8.50
2023-04-01T07:04:43.259Z,8.50
2023-04-01T07:07:21.040Z,8.50
2023-04-01T07:09:54.363Z,8.50
2023-04-01T07:12:32.581Z,8.50
2023-04-01T07:15:07.044Z,8.50
2023-04-01T07:17:36.932Z,8.50
2023-04-01T07:20:20.931Z,8.60
2023-04-01T07:22:52.348Z,8.60
2023-04-01T07:25:23.560Z,8.60
2023-04-01T07:27:53.198Z,8.60
2023-04-01T07:30:22.942Z,8.60
2023-04-01T07:33:14.458Z,8.70
2023-04-01T07:35:46.238Z,8.70
2023-04-01T07:38:31.552Z,8.70
2023-04-01T07:41:01.040Z,8.80
2023-04-01T07:43:42.005Z,8.80
2023-04-01T07:46:36.663Z,8.90
2023-04-01T07:49:27.089Z,8.90
2023-04-01T07:52:12.961Z,8.90
2023-04-01T07:54:45.392Z,8.90
2023-04-01T07:57:33.840Z,8.90
2023-04-01T08:00:05.529Z,8.90
2023-04-01T08:03:09.342Z,8.90
2023-04-01T08:05:47.331Z,8.90
2023-04-01T08:08:13.916Z,9.00
2023-04-01T08:10:55.569Z,9.00
2023-04-01T08:13:51.927Z,9.10
2023-04-01T08:16:21.972Z,9.20
2023-04-01T08:19:23.408Z,9.30
2023-04-01T08:21:55.597Z,9.20
2023-04-01T08:24:56.322Z,9.30
2023-04-01T08:27:32.584Z,9.40
2023-04-01T08:30:00.904Z,9.50
2023-04-01T08:32:39.700Z,9.50
2023-04-01T08:35:21.881Z,9.60
2023-04-01T08:37:51.279Z,9.70
2023-04-01T08:40:36.771Z,9.60
2023-04-01T08:43:10.039Z,9.60
2023-04-01T08:45:57.687Z,9.60
2023-04-01T08:48:49.493Z,9.60
2023-04-01T08:51:34.531Z,9.60
2023-04-01T08:54:10.063Z,9.70
2023-04-01T08:56:40.740Z,9.70
2023-04-01T08:59:26.175Z,9.70
2023-04-01T09:02:28.752Z,9.80
2023-04-01T09:05:37.858Z,9.90
2023-04-01T09:08:18.370Z,9.80
2023-04-01T09:11:08.676Z,9.80
2023-04-01T09:13:59.792Z,9.80
2023-04-01T09:16:48.495Z,9.80
2023-04-01T09:19:24.129Z,9.80
2023-04-01T09:22:18.042Z,9.80
2023-04-01T09:25:22.930Z,9.80
2023-04-01T09:27:57.543Z,9.90
2023-04-01T09:30:46.025Z,9.80
2023-04-01T09:33:53.405Z,9.90
2023-04-01T09:36:20.120Z,9.90
2023-04-01T09:38:49.828Z,9.90
2023-04-01T09:41:31.671Z,9.90
2023-04-01T09:44:05.569Z,9.90
2023-04-01T09:46:59.201Z,9.90
2023-04-01T09:49:55.608Z,9.90
2023-04-01T09:52:45.369Z,9.90
2023-04-01T09:55:46.717Z,9.90
2023-04-01T09:58:49.238Z,10.00
2023-04-01T10:01:59.186Z,10.00
2023-04-01T10:05:01.321Z,10.00
2023-04-01T10:07:40.122Z,10.20
2023-04-01T10:10:40.611Z,10.20
2023-04-01T10:13:25.797Z,10.30
2023-04-01T10:16:04.211Z,10.40
2023-04-01T10:18:39.619Z,10.40
2023-04-01T10:21:19.775Z,10.50
2023-04-01T10:23:46.356Z,10.50
2023-04-01T10:26:50.219Z,10.40
2023-04-01T10:29:39.958Z,10.40
2023-04-01T10:32:06.664Z,10.30
2023-04-01T10:34:56.638Z,10.30
2023-04-01T10:37:36.846Z,10.40
2023-04-01T10:40:09.700Z,10.40
2023-04-01T10:42:48.521Z,10.30
2023-04-01T10:45:44.277Z,10.40
2023-04-01T10:48:48.874Z,10.30
2023-04-01T10:51:53.334Z,10.30
2023-04-01T10:54:38.786Z,10.30
2023-04-01T10:57:40.622Z,10.30
2023-04-01T11:00:16.284Z,10.20
2023-04-01T11:03:01.924Z,10.30
2023-04-01T11:05:56.556Z,10.30
2023-04-01T11:09:11.548Z,10.30
2023-04-01T11:12:05.922Z,10.40
2023-04-01T11:14:51.481Z,10.50
2023-04-01T11:17:46.823Z,10.70
2023-04-01T11:21:01.829Z,10.90
2023-04-01T11:23:58.300Z,11.10
2023-04-01T11:26:56.911Z,11.00
2023-04-01T11:29:58.831Z,11.00
2023-04-01T11:32:44.740Z,11.00
2023-04-01T11:35:49.599Z,10.90
2023-04-01T11:38:33.777Z,10.90
2023-04-01T11:41:23.003Z,10.70
2023-04-01T11:44:16.161Z,10.70
2023-04-01T11:47:06.284Z,10.60
2023-04-01T11:50:09.961Z,10.60
2023-04-01T11:52:42.131Z,10.60
2023-04-01T11:55:51.839Z,10.50
2023-04-01T11:58:52.886Z,10.60
2023-04-01T12:01:46.659Z,10.60
2023-04-01T12:04:55.753Z,10.60
2023-04-01T12:07:26.228Z,10.60
2023-04-01T12:10:06.849Z,10.60
2023-04-01T12:13:12.659Z,10.70
2023-04-01T12:15:42.755Z,10.70
2023-04-01T12:18:37.194Z,10.80
2023-04-01T12:21:16.531Z,10.80
2023-04-01T12:23:49.607Z,10.70
2023-04-01T12:26:51.894Z,10.80
2023-04-01T12:29:36.686Z,10.90
2023-04-01T12:32:36.325Z,11.00
2023-04-01T12:35:11.634Z,11.00
2023-04-01T12:37:59.559Z,11.00
2023-04-01T12:40:47.675Z,11.00
2023-04-01T12:43:39.293Z,10.80
2023-04-01T12:46:33.809Z,10.90
2023-04-01T12:49:06.420Z,10.90
2023-04-01T12:51:57.416Z,10.90
2023-04-01T12:54:43.121Z,10.80
2023-04-01T12:57:21.973Z,10.70
2023-04-01T12:59:55.458Z,10.70
2023-04-01T13:02:54.165Z,10.80
2023-04-01T13:05:42.199Z,10.70
2023-04-01T13:08:17.027Z,10.60
2023-04-01T13:11:11.016Z,10.60
2023-04-01T13:14:07.500Z,10.70
2023-04-01T13:16:49.278Z,10.80
2023-04-01T13:19:21.823Z,11.00
2023-04-01T13:22:01.218Z,11.00
2023-04-01T13:24:37.588Z,11.10
2023-04-01T13:27:10.479Z,11.10
2023-04-01T13:29:58.801Z,11.20
2023-04-01T13:32:43.219Z,11.30
2023-04-01T13:35:27.265Z,11.30
2023-04-01T13:38:12.531Z,11.20
2023-04-01T13:40:49.276Z,11.20
2023-04-01T13:43:46.800Z,11.20
2023-04-01T13:46:34.922Z,11.20
2023-04-01T13:49:24.391Z,11.10
2023-04-01T13:52:01.664Z,11.00
2023-04-01T13:54:43.541Z,10.80
2023-04-01T13:57:31.600Z,10.80
2023-04-01T14:00:20.565Z,10.80
2023-04-01T14:02:59.384Z,10.80
2023-04-01T14:05:45.390Z,10.80
2023-04-01T14:08:45.673Z,10.90
2023-04-01T14:11:28.392Z,10.80
2023-04-01T14:14:01.518Z,10.80
2023-04-01T14:16:50.965Z,10.90
2023-04-01T14:19:36.126Z,10.80
2023-04-01T14:22:41.161Z,10.90
2023-04-01T14:25:24.486Z,11.00
2023-04-01T14:28:10.035Z,11.00
2023-04-01T14:30:44.741Z,11.00
2023-04-01T14:33:26.333Z,11.00
2023-04-01T14:36:29.787Z,11.10
2023-04-01T14:39:15.902Z,11.10
2023-04-01T14:42:21.021Z,11.10
2023-04-01T14:45:23.989Z,11.10
2023-04-01T14:48:28.126Z,11.10
2023-04-01T14:50:58.468Z,11.10
2023-04-01T14:53:30.471Z,11.10
2023-04-01T14:56:00.032Z,11.00
2023-04-01T14:58:47.738Z,10.90
2023-04-01T15:01:48.385Z,10.90
2023-04-01T15:05:00.196Z,10.90
2023-04-01T15:07:45.472Z,11.00
2023-04-01T15:10:33.955Z,11.00
2023-04-01T15:13:17.205Z,11.00
2023-04-01T15:16:02.760Z,11.10
2023-04-01T15:18:45.960Z,11.00
2023-04-01T15:21:31.466Z,10.90
2023-04-01T15:24:17.005Z,10.80
2023-04-01T15:27:05.773Z,10.70
2023-04-01T15:29:52.053Z,10.70
2023-04-01T15:32:24.880Z,10.60
2023-04-01T15:35:20.968Z,10.60
2023-04-01T15:37:58.416Z,10.50
2023-04-01T15:40:33.992Z,10.60
2023-04-01T15:43:27.251Z,10.60
2023-04-01T15:46:14.163Z,10.70
2023-04-01T15:49:00.514Z,10.60
2023-04-01T15:51:52.159Z,10.60
2023-04-01T15:54:50.213Z,10.50
2023-04-01T15:57:44.413Z,10.50
2023-04-01T16:00:56.624Z,10.50
2023-04-01T16:58:58.443Z,10.10
2023-04-01T17:05:16.477Z,10.20
2023-04-01T17:11:30.297Z,10.10
2023-04-01T17:14:52.448Z,10.20
2023-04-01T17:17:50.169Z,10.10
2023-04-01T17:20:51.148Z,10.10
2023-04-01T17:23:49.104Z,10.10
2023-04-01T17:26:47.960Z,10.10
2023-04-01T17:29:32.403Z,10.10
2023-04-01T17:32:39.656Z,10.10
2023-04-01T17:35:17.652Z,10.00
2023-04-01T17:37:56.371Z,10.00
2023-04-01T17:40:35.120Z,9.90
2023-04-01T17:43:04.994Z,9.90
2023-04-01T17:45:43.430Z,9.90
2023-04-01T17:48:35.701Z,9.90
2023-04-01T17:51:10.487Z,9.80
2023-04-01T17:53:52.496Z,9.80
2023-04-01T17:56:35.853Z,9.80
2023-04-01T17:59:24.176Z,9.80
2023-04-01T18:01:58.472Z,9.80
2023-04-01T18:04:49.415Z,9.70
2023-04-01T18:07:57.696Z,9.70
2023-04-01T18:10:42.505Z,9.70
2023-04-01T18:13:43.447Z,9.70
2023-04-01T18:16:21.756Z,9.70
2023-04-01T18:19:00.801Z,9.60
2023-04-01T18:21:38.117Z,9.60
2023-04-01T18:24:22.220Z,9.60
2023-04-01T18:27:01.878Z,9.60
2023-04-01T18:29:41.005Z,9.60
2023-04-01T18:32:24.835Z,9.50
2023-04-01T18:35:15.433Z,9.50
2023-04-01T18:38:07.471Z,9.50
2023-04-01T18:40:51.728Z,9.50
2023-04-01T18:43:40.507Z,9.50
2023-04-01T18:46:30.933Z,9.50
2023-04-01T18:49:12.979Z,9.50
2023-04-01T18:51:54.698Z,9.50
2023-04-01T18:54:31.259Z,9.50
2023-04-01T18:57:13.713Z,9.40
2023-04-01T18:59:54.203Z,9.40
2023-04-01T19:02:38.702Z,9.40
2023-04-01T19:05:32.913Z,9.40
2023-04-01T19:08:30.355Z,9.40
2023-04-01T19:11:00.018Z,9.40
2023-04-01T19:13:41.295Z,9.40
2023-04-01T19:16:41.175Z,9.40
2023-04-01T19:19:31.500Z,9.40
2023-04-01T19:22:32.647Z,9.40
2023-04-01T19:25:08.753Z,9.40
2023-04-01T19:28:02.729Z,9.30
2023-04-01T19:30:48.161Z,9.30
2023-04-01T19:33:42.414Z,9.30
2023-04-01T19:36:35.970Z,9.30
2023-04-01T19:39:12.270Z,9.30
2023-04-01T19:42:04.239Z,9.30
2023-04-01T19:44:58.635Z,9.30
2023-04-01T19:47:35.118Z,9.30
2023-04-01T19:50:21.976Z,9.30
2023-04-01T19:52:50.839Z,9.30
2023-04-01T19:55:59.706Z,9.30
2023-04-01T19:58:35.119Z,9.30
2023-04-01T20:01:04.590Z,9.30
2023-04-01T20:03:52.376Z,9.20
2023-04-01T20:06:37.945Z,9.20
2023-04-01T20:09:29.380Z,9.30
2023-04-01T20:12:19.689Z,9.20
2023-04-01T20:14:57.755Z,9.20
2023-04-01T20:17:43.326Z,9.30
2023-04-01T20:20:10.165Z,9.30
2023-04-01T20:23:08.102Z,9.20
2023-04-01T20:26:09.792Z,9.20
2023-04-01T20:29:08.720Z,9.20
2023-04-01T20:31:51.097Z,9.20
2023-04-01T20:34:41.244Z,9.20
2023-04-01T20:37:30.791Z,9.20
2023-04-01T20:40:03.218Z,9.20
2023-04-01T20:43:00.564Z,9.20
2023-04-01T20:45:33.612Z,9.20
2023-04-01T20:48:03.671Z,9.10
2023-04-01T20:50:42.585Z,9.10
2023-04-01T20:53:29.208Z,9.10
2023-04-01T20:56:18.682Z,9.10
2023-04-01T20:59:04.376Z,9.00
2023-04-01T21:02:03.150Z,9.00
2023-04-01T21:04:42.334Z,9.10
2023-04-01T21:07:12.654Z,9.00
2023-04-01T21:10:13.529Z,9.00
2023-04-01T21:13:10.989Z,9.00
2023-04-01T21:15:57.898Z,9.00
2023-04-01T21:18:58.950Z,8.90
2023-04-01T21:21:55.454Z,8.90
2023-04-01T21:24:53.204Z,8.90
2023-04-01T21:27:41.018Z,8.90
2023-04-01T21:30:37.260Z,8.90
2023-04-01T21:33:11.768Z,8.90
2023-04-01T21:35:54.842Z,8.90
2023-04-01T21:38:30.949Z,8.90
2023-04-01T21:41:27.278Z,8.90
2023-04-01T21:44:22.429Z,8.90
2023-04-01T21:47:18.402Z,8.90
2023-04-01T21:50:05.397Z,8.80
2023-04-01T21:52:38.115Z,8.70
2023-04-01T21:55:42.668Z,8.60
2023-04-01T21:58:29.137Z,8.60
2023-04-01T22:01:19.487Z,8.50
2023-04-01T22:04:14.686Z,8.40
2023-04-01T22:07:07.274Z,8.30
2023-04-01T22:10:12.375Z,8.30
2023-04-01T22:13:09.964Z,8.20
2023-04-01T22:16:04.535Z,8.10
2023-04-01T22:18:35.796Z,8.10
2023-04-01T22:21:36.474Z,8.00
2023-04-01T22:24:32.600Z,7.90
2023-04-01T22:27:40.399Z,7.90
2023-04-01T22:30:23.493Z,7.80
2023-04-01T22:33:09.379Z,7.80
2023-04-01T22:36:03.498Z,7.80
2023-04-01T22:38:58.715Z,7.70
2023-04-01T22:41:49.995Z,7.60
2023-04-01T22:44:37.286Z,7.50
2023-04-01T22:47:22.027Z,7.50
2023-04-01T22:50:07.313Z,7.50
2023-04-01T22:52:39.526Z,7.40
2023-04-01T22:55:15.173Z,7.40
2023-04-01T22:57:58.613Z,7.40
2023-04-01T23:00:45.838Z,7.30
2023-04-01T23:03:28.349Z,7.30
2023-04-01T23:05:58.260Z,7.30
2023-04-01T23:08:49.786Z,7.30
2023-04-01T23:11:21.960Z,7.20
2023-04-01T23:13:57.305Z,7.20
2023-04-01T23:16:54.308Z,7.10
2023-04-01T23:19:40.242Z,7.10
2023-04-01T23:22:26.252Z,7.10
2023-04-01T23:25:24.172Z,7.10
2023-04-01T23:28:34.426Z,7.00
2023-04-01T23:31:11.359Z,7.00
2023-04-01T23:54:30.748Z,6.60
2023-04-01T23:57:03.740Z,6.60
